Newton, NC

3:05 PM EST on January 26, 2015 (GMT -0500)
Statesville Municipal | Change Station
CLOSE
Current Station
Airport
Location: Statesville,
Elevation: 965 ft
Nearby Weather Stations

Elev 965 ft 35.76 °N, 80.96 °W | Updated 10 minutes ago

Overcast
Overcast
50 °F
Feels Like 50 °F
N
9
Wind Variable Wind from NNW

Today
High -- | Low -- °F
--% Chance of Precip.
Yesterday
High -- | Low -- °F
Precip. -- in
7:29 AM 5:46 PM
Waxing Crescent, 46% visible
Pressure 29.60 in
Visibility 10.0 miles
Clouds Scattered Clouds 4900 ft
Mostly Cloudy 6000 ft
Overcast 7000 ft
Dew Point 33 °F
Humidity 53%
Rainfall 0.00 in
Snow Depth Not available.
UV 1 out of 12
Pollen .50 out of 12
Air Quality Not available.
Flu Activity Not available.
METAR KSVH 261955Z AUTO 33008KT 10SM SCT049 BKN060 OVC070 10/01 A2960 RMK AO2 T00980005

More Conditions Fewer Conditions

Pressure 29.60 in
Visibility 10.0 miles
Clouds Scattered Clouds 4900 ft
Mostly Cloudy 6000 ft
Overcast 7000 ft
Dew Point 33 °F
Humidity 53%
Rainfall 0.00 in
Snow Depth Not available.
UV 1 out of 12
Pollen .50 out of 12
Air Quality Not available.
Flu Activity Not available.
METAR KSVH 261955Z AUTO 33008KT 10SM SCT049 BKN060 OVC070 10/01 A2960 RMK AO2 T00980005

More Conditions Fewer Conditions

10-Day Weather Forecast

Almanac

Astronomy

Jan. 26, 2015 Rise Set
Actual Time
Civil Twilight
Nautical Twilight
Astronomical Twilight
Moon
Length of Visible Light
Length of Day
Tomorrow will be .
, % of the Moon is Illuminated

Today's Extremes

State Highs State Lows

Community

WunderPhotos

Upload Photos

1,790,344 photos uploaded!

WunderBlogs® & News

Nearby

Air Quality

  Air Quality AQ Index Pollutant
Not available.

Snow Depth

Station Depth Elevation

Earthquake Activity

City Distance Mag. Time & Date
Minimum magnitude displayed is 2.5.

Coastal Water Temperatures

Place Temperature

Nearby Weather Stations